ADDS METAR Data INFO
IDs: Format: Raw Decoded Include TAF

Data at: 0717 UTC 19 Oct 2017

KOKB 190657Z AUTO 00000KT 5SM BR BKN011 17/16 A2991 RMK AO2 T01670161
KOKB 190650Z AUTO 00000KT 4SM BR SCT011 BKN017 16/16 A2991 RMK AO2 SLP128 T01610156
KOKB 190649Z AUTO 00000KT 4SM BR SCT011 BKN017 16/16 A2991 RMK AO2
KOKB 190640Z AUTO 00000KT 2SM BR FEW017 16/16 A2991 RMK AO2 T01610156
KOKB 190552Z AUTO 00000KT 5SM BR CLR 16/16 A2991 RMK AO2 SLP129 T01610156 10233 20161 50002
KOKB 190452Z AUTO 00000KT 6SM BR CLR 17/16 A2992 RMK AO2 SLP131 T01720161
KOKB 190352Z AUTO 06003KT 6SM BR CLR 19/17 A2991 RMK AO2 SLP127 T01890172
KOKB 190252Z AUTO 17003KT 7SM SCT010 21/19 A2991 RMK AO2 SLP127 T02060189 50004
KOKB 190248Z AUTO 19003KT 7SM BKN010 21/19 A2991 RMK AO2
KOKB 190152Z AUTO 21005KT 7SM CLR 21/19 A2990 RMK AO2 SLP124 T02110189
KOKB 190120Z AUTO 23006KT 6SM BR SCT012 21/19 A2989 RMK AO2 T02110189
KOKB 190110Z AUTO 21006KT 6SM HZ BKN012 22/19 A2989 RMK AO2 T02170189
KOKB 190052Z AUTO 24006KT 6SM HZ SCT013 22/19 A2989 RMK AO2 SLP122 T02170189
KOKB 182352Z AUTO 20007KT 7SM CLR 23/18 A2989 RMK AO2 SLP122 T02330183 10272 20233 56008
KOKB 182252Z AUTO 23006KT 7SM CLR 24/18 A2990 RMK AO2 SLP123 T02390183
KOKB 182152Z AUTO 23006KT 7SM CLR 24/18 A2990 RMK AO2 SLP125 T02390183
KOKB 182052Z AUTO 23009KT 7SM CLR 24/18 A2992 RMK AO2 SLP130 T02440178 58012
KOKB 181952Z AUTO 20009KT 8SM CLR 26/17 A2993 RMK AO2 SLP134 T02610167
KOKB 181852Z AUTO 20008KT 8SM CLR 26/17 A2994 RMK AO2 SLP140 T02560172
KOKB 181752Z AUTO 21009KT 7SM CLR 24/18 A2995 RMK AO2 SLP142 T02440178 10250 20122 51007
KOKB 181652Z AUTO 24007KT 7SM CLR 24/17 A2995 RMK AO2 SLP141 T02390172
KOKB 181552Z AUTO 00000KT 9SM CLR 19/09 A2995 RMK AO2 SLP140 T01940094
KOKB 181452Z AUTO 00000KT 10SM CLR 16/09 A2993 RMK AO2 SLP135 T01610094 52002
KOKB 181352Z AUTO 00000KT 10SM CLR 13/09 A2993 RMK AO2 SLP133 T01280094
KOKB 181252Z AUTO 00000KT 10SM CLR 13/10 A2993 RMK AO2 SLP134 T01280100
KOKB 181152Z AUTO 00000KT 10SM CLR 13/11 A2993 RMK AO2 SLP133 T01330106 10178 20128 52001
KOKB 181052Z AUTO 00000KT 10SM CLR 13/11 A2992 RMK AO2 SLP131 T01280106
KOKB 180952Z AUTO 00000KT 10SM CLR 14/12 A2993 RMK AO2 SLP134 T01390117
KOKB 180852Z AUTO 00000KT 10SM CLR 14/11 A2992 RMK AO2 SLP132 T01390111 58003
KOKB 180752Z AUTO 00000KT 10SM CLR 16/12 A2992 RMK AO2 SLP132 T01560122 403000122
KOKB 180652Z AUTO 00000KT 10SM CLR 17/14 A2993 RMK AO2 SLP135 T01670139
KOKB 180552Z AUTO 02004KT 10SM CLR 17/15 A2993 RMK AO2 SLP135 T01720150 10256 20161 50003
KOKB 180452Z AUTO 00000KT 10SM CLR 17/16 A2994 RMK AO2 SLP136 T01720156
KOKB 180352Z AUTO 00000KT 10SM CLR 18/16 A2993 RMK AO2 SLP135 T01830156
KOKB 180252Z AUTO 00000KT 10SM CLR 19/16 A2992 RMK AO2 SLP131 T01940161 53003
KOKB 180152Z AUTO 00000KT 10SM CLR 22/18 A2992 RMK AO2 SLP131 T02170178
KOKB 180052Z AUTO 25004KT 10SM CLR 23/17 A2991 RMK AO2 SLP127 T02330172
KOKB 172352Z AUTO 25006KT 10SM CLR 26/16 A2991 RMK AO2 SLP128 T02560156 10300 20250 58003
KOKB 172252Z AUTO 24008KT 9SM CLR 26/18 A2992 RMK AO2 SLP131 T02560178
KOKB 172152Z AUTO 26012KT 10SM CLR 28/13 A2992 RMK AO2 SLP129 T02780133
KOKB 172052Z AUTO 24008KT 10SM CLR 29/11 A2992 RMK AO2 SLP131 T02940111 58023
KOKB 171952Z AUTO 25006KT 10SM CLR 28/13 A2995 RMK AO2 SLP141 T02830133